createdAt,value
2018-05-01T00:01:38.446Z,97340.79
2018-05-01T00:04:05.999Z,97340.52
2018-05-01T00:06:33.889Z,97340.61
2018-05-01T00:09:01.444Z,97344.09
2018-05-01T00:11:28.975Z,97331.95
2018-05-01T00:13:56.513Z,97334.69
2018-05-01T00:16:24.072Z,97334.72
2018-05-01T00:18:51.805Z,97338.42
2018-05-01T00:21:19.368Z,97341.28
2018-05-01T00:23:47.068Z,97347.05
2018-05-01T00:26:14.611Z,97346.22
2018-05-01T00:28:42.201Z,97343.23
2018-05-01T00:31:09.978Z,97347.98
2018-05-01T00:33:37.618Z,97345.45
2018-05-01T00:36:05.243Z,97353.96
2018-05-01T00:38:32.854Z,97353.78
2018-05-01T00:41:00.605Z,97350.77
2018-05-01T00:43:28.641Z,97348.21
2018-05-01T00:45:56.179Z,97352.74
2018-05-01T00:48:23.873Z,97353.08
2018-05-01T00:50:51.514Z,97358.70
2018-05-01T00:53:19.249Z,97355.30
2018-05-01T00:55:47.459Z,97354.91
2018-05-01T00:58:15.141Z,97350.05
2018-05-01T01:00:42.688Z,97345.31
2018-05-01T01:03:10.229Z,97341.52
2018-05-01T01:05:37.771Z,97358.74
2018-05-01T01:08:05.291Z,97355.16
2018-05-01T01:10:32.810Z,97353.34
2018-05-01T01:13:00.330Z,97360.38
2018-05-01T01:15:27.920Z,97361.06
2018-05-01T01:17:55.548Z,97361.05
2018-05-01T01:20:23.198Z,97361.70
2018-05-01T01:22:51.065Z,97361.08
2018-05-01T01:25:18.931Z,97356.98
2018-05-01T01:27:46.638Z,97371.09
2018-05-01T01:30:14.180Z,97373.80
2018-05-01T01:32:42.398Z,97375.29
2018-05-01T01:35:09.628Z,97373.55
2018-05-01T01:37:36.635Z,97376.44
2018-05-01T01:40:03.632Z,97378.34
2018-05-01T01:42:30.636Z,97384.38
2018-05-01T01:44:57.639Z,97392.59
2018-05-01T01:47:24.741Z,97397.53
2018-05-01T01:49:51.767Z,97399.09
2018-05-01T01:52:18.749Z,97398.00
2018-05-01T01:54:45.734Z,97397.98
2018-05-01T01:57:12.807Z,97401.17
2018-05-01T01:59:39.860Z,97400.14
2018-05-01T02:02:06.876Z,97404.20
2018-05-01T02:04:34.080Z,97411.36
2018-05-01T02:07:01.350Z,97412.64
2018-05-01T02:09:28.470Z,97417.98
2018-05-01T02:11:55.550Z,97423.40
2018-05-01T02:14:22.536Z,97425.84
2018-05-01T02:16:49.509Z,97429.13
2018-05-01T02:19:16.463Z,97435.42
2018-05-01T02:21:43.514Z,97430.63
2018-05-01T02:24:10.495Z,97426.41
2018-05-01T02:26:37.730Z,97430.00
2018-05-01T02:29:04.711Z,97439.07
2018-05-01T02:31:31.720Z,97445.04
2018-05-01T02:33:58.701Z,97452.76
2018-05-01T02:36:25.745Z,97450.30
2018-05-01T02:38:52.990Z,97452.53
2018-05-01T02:41:20.021Z,97452.61
2018-05-01T02:43:46.967Z,97454.11
2018-05-01T02:46:13.950Z,97450.13
2018-05-01T02:48:40.966Z,97457.47
2018-05-01T02:51:07.975Z,97452.36
2018-05-01T02:53:35.165Z,97457.14
2018-05-01T02:56:02.176Z,97454.84
2018-05-01T02:58:29.422Z,97452.28
2018-05-01T03:00:56.542Z,97451.01
2018-05-01T03:03:23.521Z,97459.73
2018-05-01T03:05:50.594Z,97454.69
2018-05-01T03:08:17.782Z,97456.61
2018-05-01T03:10:44.836Z,97461.84
2018-05-01T03:13:11.844Z,97454.99
2018-05-01T03:15:38.985Z,97455.87
2018-05-01T03:18:06.000Z,97453.92
2018-05-01T03:20:33.695Z,97451.08
2018-05-01T03:23:00.749Z,97441.64
2018-05-01T03:25:27.937Z,97450.02
2018-05-01T03:27:54.985Z,97447.06
2018-05-01T03:30:21.996Z,97447.86
2018-05-01T03:32:50.366Z,97451.45
2018-05-01T03:35:17.359Z,97447.80
2018-05-01T03:37:44.459Z,97454.09
2018-05-01T03:40:11.485Z,97457.09
2018-05-01T03:42:38.500Z,97460.93
2018-05-01T03:45:05.966Z,97462.22
2018-05-01T03:47:32.986Z,97466.09
2018-05-01T03:50:00.034Z,97463.09
2018-05-01T03:52:27.039Z,97457.83
2018-05-01T03:54:54.199Z,97462.21
2018-05-01T03:57:21.283Z,97463.77
2018-05-01T03:59:48.251Z,97461.72
2018-05-01T04:02:15.286Z,97470.20
2018-05-01T04:04:42.286Z,97471.94
2018-05-01T04:07:09.490Z,97480.14
2018-05-01T04:09:36.476Z,97484.13
2018-05-01T04:12:03.736Z,97494.28
2018-05-01T04:14:30.725Z,97490.45
2018-05-01T04:16:57.811Z,97495.86
2018-05-01T04:19:24.798Z,97502.23
2018-05-01T04:21:51.925Z,97501.63
2018-05-01T04:24:18.904Z,97512.36
2018-05-01T04:26:45.886Z,97511.09
2018-05-01T04:29:13.266Z,97516.19
2018-05-01T04:31:40.462Z,97516.98
2018-05-01T04:34:07.614Z,97521.83
2018-05-01T04:36:35.739Z,97526.79
2018-05-01T04:39:02.928Z,97532.83
2018-05-01T04:41:30.164Z,97539.61
2018-05-01T04:43:57.160Z,97536.38
2018-05-01T04:46:24.151Z,97548.56
2018-05-01T04:48:51.333Z,97549.16
2018-05-01T04:51:18.347Z,97549.16
2018-05-01T04:53:45.350Z,97557.14
2018-05-01T04:56:12.343Z,97549.05
2018-05-01T04:58:39.479Z,97553.38
2018-05-01T05:01:06.654Z,97566.67
2018-05-01T05:03:34.119Z,97566.60
2018-05-01T05:06:01.443Z,97567.95
2018-05-01T05:08:28.535Z,97580.16
2018-05-01T05:10:55.996Z,97589.38
2018-05-01T05:13:23.422Z,97582.84
2018-05-01T05:15:50.614Z,97581.66
2018-05-01T05:18:17.616Z,97586.94
2018-05-01T05:20:44.679Z,97584.17
2018-05-01T05:23:11.816Z,97589.11
2018-05-01T05:25:38.851Z,97584.59
2018-05-01T05:28:05.826Z,97591.77
2018-05-01T05:30:33.039Z,97592.80
2018-05-01T05:33:00.011Z,97598.86
2018-05-01T05:35:27.035Z,97610.38
2018-05-01T05:37:54.016Z,97613.45
2018-05-01T05:40:21.092Z,97609.47
2018-05-01T05:42:48.198Z,97614.34
2018-05-01T05:45:15.116Z,97620.34
2018-05-01T05:47:42.114Z,97629.13
2018-05-01T05:50:09.126Z,97629.30
2018-05-01T05:52:36.201Z,97637.81
2018-05-01T05:55:03.220Z,97642.55
2018-05-01T05:57:30.212Z,97643.26
2018-05-01T05:59:57.404Z,97649.48
2018-05-01T06:02:24.589Z,97643.11
2018-05-01T06:04:51.570Z,97643.02
2018-05-01T06:07:18.581Z,97654.43
2018-05-01T06:09:45.591Z,97654.81
2018-05-01T06:12:12.611Z,97657.09
2018-05-01T06:14:39.632Z,97660.05
2018-05-01T06:17:06.697Z,97666.44
2018-05-01T06:19:33.691Z,97664.41
2018-05-01T06:22:00.761Z,97671.52
2018-05-01T06:24:27.815Z,97666.16
2018-05-01T06:26:54.969Z,97669.50
2018-05-01T06:29:21.967Z,97671.86
2018-05-01T06:31:48.967Z,97677.56
2018-05-01T06:34:16.930Z,97683.73
2018-05-01T06:36:43.932Z,97684.47
2018-05-01T06:39:11.007Z,97681.63
2018-05-01T06:41:38.046Z,97690.87
2018-05-01T06:44:05.099Z,97687.88
2018-05-01T06:46:32.954Z,97703.10
2018-05-01T06:48:59.947Z,97701.69
2018-05-01T06:51:26.986Z,97701.93
2018-05-01T06:53:54.065Z,97703.94
2018-05-01T06:56:21.066Z,97700.45
2018-05-01T06:58:48.064Z,97705.61
2018-05-01T07:01:15.073Z,97705.97
2018-05-01T07:03:42.092Z,97715.77
2018-05-01T07:06:09.073Z,97719.30
2018-05-01T07:08:36.221Z,97721.78
2018-05-01T07:11:03.221Z,97725.17
2018-05-01T07:13:30.924Z,97726.85
2018-05-01T07:15:58.162Z,97730.67
2018-05-01T07:18:25.223Z,97729.13
2018-05-01T07:20:52.525Z,97729.16
2018-05-01T07:23:19.621Z,97733.73
2018-05-01T07:25:46.620Z,97735.48
2018-05-01T07:28:13.621Z,97744.00
2018-05-01T07:30:40.652Z,97738.21
2018-05-01T07:33:07.642Z,97736.60
2018-05-01T07:35:34.860Z,97733.87
2018-05-01T07:38:02.042Z,97741.49
2018-05-01T07:40:29.055Z,97740.57
2018-05-01T07:42:56.365Z,97746.33
2018-05-01T07:45:23.405Z,97746.21
2018-05-01T07:47:50.421Z,97742.47
2018-05-01T07:50:17.421Z,97749.00
2018-05-01T07:52:45.355Z,97745.72
2018-05-01T07:55:12.515Z,97737.13
2018-05-01T07:57:40.145Z,97727.34
2018-05-01T08:00:07.182Z,97730.91
2018-05-01T08:02:34.191Z,97735.52
2018-05-01T08:05:01.246Z,97749.39
2018-05-01T08:07:28.627Z,97753.77
2018-05-01T08:09:55.665Z,97755.45
2018-05-01T08:12:22.722Z,97755.48
2018-05-01T08:14:49.746Z,97749.02
2018-05-01T08:17:16.732Z,97751.18
2018-05-01T08:19:43.942Z,97749.58
2018-05-01T08:22:11.113Z,97749.71
2018-05-01T08:24:38.352Z,97752.98
2018-05-01T08:27:05.497Z,97753.62
2018-05-01T08:29:32.583Z,97748.53
2018-05-01T08:31:59.729Z,97747.41
2018-05-01T08:34:27.130Z,97753.30
2018-05-01T08:36:54.213Z,97765.55
2018-05-01T08:39:21.218Z,97764.89
2018-05-01T08:41:48.310Z,97769.36
2018-05-01T08:44:15.386Z,97770.02
2018-05-01T08:46:42.536Z,97779.57
2018-05-01T08:49:10.008Z,97793.52
2018-05-01T08:51:37.011Z,97787.82
2018-05-01T08:54:04.294Z,97788.77
2018-05-01T08:56:31.441Z,97795.00
2018-05-01T08:58:58.476Z,97803.03
2018-05-01T09:01:25.625Z,97811.72
2018-05-01T09:03:52.770Z,97819.20
2018-05-01T09:06:19.908Z,97823.04
2018-05-01T09:08:47.007Z,97810.88
2018-05-01T09:11:14.431Z,97812.95
2018-05-01T09:13:41.565Z,97807.11
2018-05-01T09:16:08.652Z,97811.04
2018-05-01T09:18:35.661Z,97816.59
2018-05-01T09:21:03.065Z,97813.89
2018-05-01T09:23:30.166Z,97823.45
2018-05-01T09:25:57.211Z,97828.05
2018-05-01T09:28:24.373Z,97827.94
2018-05-01T09:30:51.425Z,97833.05
2018-05-01T09:33:18.491Z,97825.81
2018-05-01T09:35:45.631Z,97831.00
2018-05-01T09:38:12.756Z,97827.67
2018-05-01T09:40:39.750Z,97820.72
2018-05-01T09:43:06.912Z,97820.00
2018-05-01T09:45:34.211Z,97821.09
2018-05-01T09:48:01.415Z,97818.66
2018-05-01T09:50:28.843Z,97819.66
2018-05-01T09:52:56.436Z,97820.84
2018-05-01T09:55:23.972Z,97825.17
2018-05-01T09:57:51.597Z,97824.89
2018-05-01T10:00:24.733Z,97831.59
2018-05-01T10:02:52.273Z,97824.77
2018-05-01T10:05:19.935Z,97818.55
2018-05-01T10:07:50.397Z,97815.02
2018-05-01T10:10:18.207Z,97814.62
2018-05-01T10:12:45.881Z,97802.53
2018-05-01T10:15:13.578Z,97817.55
2018-05-01T10:17:41.207Z,97809.38
2018-05-01T10:20:08.826Z,97799.55
2018-05-01T10:22:36.398Z,97792.86
2018-05-01T10:25:04.068Z,97795.78
2018-05-01T10:27:31.783Z,97795.86
2018-05-01T10:30:00.354Z,97790.01
2018-05-01T10:32:28.282Z,97796.56
2018-05-01T10:34:55.833Z,97795.59
2018-05-01T10:37:23.608Z,97793.02
2018-05-01T10:39:51.310Z,97790.41
2018-05-01T10:42:19.137Z,97788.05
2018-05-01T10:44:46.780Z,97789.28
2018-05-01T10:47:14.916Z,97782.77
2018-05-01T10:49:42.562Z,97783.45
2018-05-01T10:52:10.227Z,97768.08
2018-05-01T10:54:38.056Z,97769.34
2018-05-01T10:57:05.707Z,97772.53
2018-05-01T10:59:33.347Z,97767.42
2018-05-01T11:02:01.168Z,97757.34
2018-05-01T11:04:28.818Z,97768.23
2018-05-01T11:06:56.426Z,97765.90
2018-05-01T11:09:24.057Z,97770.17
2018-05-01T11:11:51.689Z,97772.86
2018-05-01T11:14:19.278Z,97773.66
2018-05-01T11:16:48.032Z,97780.86
2018-05-01T11:19:16.017Z,97778.20
2018-05-01T11:21:45.054Z,97772.74
2018-05-01T11:24:12.871Z,97772.83
2018-05-01T11:26:40.615Z,97768.14
2018-05-01T11:29:08.361Z,97771.25
2018-05-01T11:31:35.940Z,97769.84
2018-05-01T11:34:03.809Z,97778.71
2018-05-01T11:36:31.612Z,97776.49
2018-05-01T11:38:59.353Z,97788.58
2018-05-01T11:41:26.975Z,97802.61
2018-05-01T11:43:54.530Z,97788.91
2018-05-01T11:46:22.218Z,97783.48
2018-05-01T11:48:49.763Z,97773.16
2018-05-01T11:51:18.634Z,97778.13
2018-05-01T11:53:46.496Z,97791.33
2018-05-01T11:56:14.077Z,97784.37
2018-05-01T11:58:41.612Z,97780.53
2018-05-01T12:01:09.273Z,97784.88
2018-05-01T12:03:37.002Z,97788.45
2018-05-01T12:06:05.042Z,97779.51
2018-05-01T12:08:32.693Z,97783.26
2018-05-01T12:11:00.273Z,97785.64
2018-05-01T12:13:28.002Z,97789.80
2018-05-01T12:15:55.602Z,97784.70
2018-05-01T12:18:23.543Z,97776.41
2018-05-01T12:20:51.339Z,97776.28
2018-05-01T12:23:18.867Z,97781.84
2018-05-01T12:25:46.499Z,97779.30
2018-05-01T12:28:14.066Z,97783.23
2018-05-01T12:30:41.895Z,97784.37
2018-05-01T12:33:10.032Z,97786.55
2018-05-01T12:35:37.554Z,97782.97
2018-05-01T12:38:05.160Z,97786.53
2018-05-01T12:40:32.888Z,97783.45
2018-05-01T12:43:00.536Z,97782.71
2018-05-01T12:45:28.370Z,97778.58
2018-05-01T12:47:55.909Z,97775.25
2018-05-01T12:50:23.509Z,97765.39
2018-05-01T12:52:51.131Z,97769.31
2018-05-01T12:55:18.687Z,97765.66
2018-05-01T12:57:46.221Z,97760.73
2018-05-01T13:00:13.927Z,97763.22
2018-05-01T13:02:41.717Z,97770.90
2018-05-01T13:05:09.559Z,97758.67
2018-05-01T13:07:38.542Z,97757.69
2018-05-01T13:10:06.152Z,97750.16
2018-05-01T13:12:33.936Z,97744.81
2018-05-01T13:15:01.547Z,97755.38
2018-05-01T13:17:29.449Z,97746.92
2018-05-01T13:19:57.317Z,97748.12
2018-05-01T13:22:24.905Z,97752.17
2018-05-01T13:24:52.504Z,97748.31
2018-05-01T13:27:20.211Z,97751.98
2018-05-01T13:29:47.928Z,97752.05
2018-05-01T13:32:15.924Z,97742.56
2018-05-01T13:34:43.674Z,97739.33
2018-05-01T13:37:11.323Z,97741.79
2018-05-01T13:39:39.207Z,97747.72
2018-05-01T13:42:07.269Z,97738.07
2018-05-01T13:44:34.922Z,97735.64
2018-05-01T13:47:02.784Z,97732.33
2018-05-01T13:49:31.704Z,97731.70
2018-05-01T13:51:59.389Z,97733.25
2018-05-01T13:54:27.160Z,97737.92
2018-05-01T13:56:54.745Z,97728.88
2018-05-01T13:59:22.419Z,97738.31
2018-05-01T14:01:50.222Z,97735.16
2018-05-01T14:04:17.875Z,97730.30
2018-05-01T14:06:45.399Z,97733.02
2018-05-01T14:09:13.055Z,97728.05
2018-05-01T14:11:40.657Z,97726.89
2018-05-01T14:14:08.213Z,97726.06
2018-05-01T14:16:35.730Z,97722.33
2018-05-01T14:19:03.464Z,97719.17
2018-05-01T14:21:31.145Z,97724.09
2018-05-01T14:23:58.714Z,97719.92
2018-05-01T14:26:26.428Z,97714.50
2018-05-01T14:28:54.421Z,97711.83
2018-05-01T14:31:21.949Z,97710.80
2018-05-01T14:33:49.594Z,97706.95
2018-05-01T14:36:17.189Z,97708.47
2018-05-01T14:38:44.728Z,97715.28
2018-05-01T14:41:12.284Z,97709.91
2018-05-01T14:43:39.898Z,97705.89
2018-05-01T14:46:07.967Z,97700.77
2018-05-01T14:48:35.533Z,97702.00
2018-05-01T14:51:03.129Z,97696.80
2018-05-01T14:53:30.806Z,97698.44
2018-05-01T14:55:59.350Z,97694.19
2018-05-01T14:58:27.234Z,97690.73
2018-05-01T15:00:55.039Z,97689.73
2018-05-01T15:03:22.720Z,97697.45
2018-05-01T15:05:50.567Z,97693.42
2018-05-01T15:08:18.230Z,97688.80
2018-05-01T15:10:45.828Z,97701.55
2018-05-01T15:13:13.525Z,97695.68
2018-05-01T15:15:41.303Z,97701.42
2018-05-01T15:18:08.869Z,97706.86
2018-05-01T15:20:36.571Z,97712.52
2018-05-01T15:23:04.156Z,97695.95
2018-05-01T15:25:31.812Z,97700.44
2018-05-01T15:27:59.325Z,97699.96
2018-05-01T15:30:27.293Z,97693.16
2018-05-01T15:32:55.230Z,97694.40
2018-05-01T15:35:22.839Z,97700.19
2018-05-01T15:37:50.649Z,97705.74
2018-05-01T15:40:18.225Z,97699.87
2018-05-01T15:42:45.789Z,97704.75
2018-05-01T15:45:13.587Z,97697.33
2018-05-01T15:47:41.110Z,97704.00
2018-05-01T15:50:08.991Z,97704.31
2018-05-01T15:52:36.641Z,97701.95
2018-05-01T15:55:04.285Z,97712.35
2018-05-01T15:57:32.005Z,97706.63
2018-05-01T16:00:00.065Z,97708.60
2018-05-01T16:02:27.604Z,97702.83
2018-05-01T16:04:56.122Z,97701.38
2018-05-01T16:07:23.874Z,97700.58
2018-05-01T16:09:51.535Z,97701.22
2018-05-01T16:12:19.136Z,97696.05
2018-05-01T16:14:46.877Z,97695.80
2018-05-01T16:17:14.421Z,97690.41
2018-05-01T16:19:42.497Z,97692.70
2018-05-01T16:22:10.442Z,97699.30
2018-05-01T16:24:38.306Z,97701.59
2018-05-01T16:27:06.267Z,97706.45
2018-05-01T16:29:34.970Z,97701.36
2018-05-01T16:32:03.270Z,97697.72
2018-05-01T16:34:31.071Z,97693.91
2018-05-01T16:36:58.625Z,97695.44
2018-05-01T16:39:26.495Z,97697.66
2018-05-01T16:41:54.417Z,97696.24
2018-05-01T16:44:22.152Z,97698.08
2018-05-01T16:46:49.841Z,97690.83
2018-05-01T16:49:17.561Z,97695.20
2018-05-01T16:51:45.107Z,97696.27
2018-05-01T16:54:12.769Z,97703.36
2018-05-01T16:56:40.340Z,97697.10
2018-05-01T16:59:08.116Z,97702.17
2018-05-01T17:01:36.038Z,97702.02
2018-05-01T17:04:03.675Z,97698.78
2018-05-01T17:06:31.270Z,97705.02
2018-05-01T17:08:59.892Z,97707.41
2018-05-01T17:11:28.051Z,97709.88
2018-05-01T17:13:55.790Z,97701.34
2018-05-01T17:16:23.406Z,97701.34
2018-05-01T17:18:51.010Z,97705.31
2018-05-01T17:21:19.694Z,97705.08
2018-05-01T17:23:47.405Z,97697.53
2018-05-01T17:26:14.936Z,97695.77
2018-05-01T17:28:42.485Z,97692.25
2018-05-01T17:31:10.185Z,97684.73
2018-05-01T17:33:37.871Z,97695.20
2018-05-01T17:36:05.442Z,97698.52
2018-05-01T17:38:33.040Z,97695.99
2018-05-01T17:41:00.577Z,97706.32
2018-05-01T17:43:28.296Z,97694.83
2018-05-01T17:45:56.960Z,97696.79
2018-05-01T17:48:24.589Z,97700.31
2018-05-01T17:50:52.119Z,97713.62
2018-05-01T17:53:19.251Z,97709.23
2018-05-01T17:55:46.399Z,97711.66
2018-05-01T17:58:13.951Z,97709.95
2018-05-01T18:00:41.260Z,97705.91
2018-05-01T18:03:08.956Z,97710.16
2018-05-01T18:05:36.087Z,97706.51
2018-05-01T18:08:03.447Z,97709.31
2018-05-01T18:10:30.617Z,97715.88
2018-05-01T18:12:57.702Z,97718.84
2018-05-01T18:15:25.010Z,97721.14
2018-05-01T18:17:52.176Z,97720.25
2018-05-01T18:20:19.302Z,97723.02
2018-05-01T18:22:46.382Z,97717.67
2018-05-01T18:25:13.635Z,97722.75
2018-05-01T18:27:40.771Z,97728.52
2018-05-01T18:30:07.970Z,97731.95
2018-05-01T18:32:35.483Z,97739.59
2018-05-01T18:35:03.477Z,97737.13
2018-05-01T18:37:30.701Z,97738.65
2018-05-01T18:39:57.806Z,97743.19
2018-05-01T18:42:24.922Z,97739.20
2018-05-01T18:44:52.190Z,97749.91
2018-05-01T18:47:19.445Z,97753.06
2018-05-01T18:49:46.649Z,97757.83
2018-05-01T18:52:13.760Z,97749.72
2018-05-01T18:54:40.952Z,97758.57
2018-05-01T18:57:08.101Z,97760.16
2018-05-01T18:59:35.228Z,97756.05
2018-05-01T19:02:03.785Z,97755.01
2018-05-01T19:04:31.945Z,97750.77
2018-05-01T19:07:00.126Z,97757.19
2018-05-01T19:09:28.180Z,97764.14
2018-05-01T19:11:55.894Z,97769.25
2018-05-01T19:14:23.551Z,97763.92
2018-05-01T19:16:52.057Z,97776.25
2018-05-01T19:19:20.007Z,97778.53
2018-05-01T19:21:47.370Z,97787.98
2018-05-01T19:24:14.737Z,97783.27
2018-05-01T19:26:42.560Z,97791.92
2018-05-01T19:29:09.882Z,97789.44
2018-05-01T19:31:37.766Z,97796.47
2018-05-01T19:34:05.765Z,97794.62
2018-05-01T19:36:32.875Z,97791.38
2018-05-01T19:39:00.097Z,97791.17
2018-05-01T19:41:27.231Z,97787.29
2018-05-01T19:43:55.171Z,97793.09
2018-05-01T19:46:22.776Z,97792.97
2018-05-01T19:48:50.149Z,97787.78
2018-05-01T19:51:17.296Z,97789.14
2018-05-01T19:53:44.430Z,97790.18
2018-05-01T19:56:11.546Z,97792.09
2018-05-01T19:58:38.949Z,97790.60
2018-05-01T20:01:06.103Z,97789.39
2018-05-01T20:03:33.312Z,97795.70
2018-05-01T20:06:00.562Z,97796.15
2018-05-01T20:08:27.846Z,97792.34
2018-05-01T20:10:55.141Z,97789.70
2018-05-01T20:13:22.551Z,97801.36
2018-05-01T20:15:50.021Z,97798.20
2018-05-01T20:18:17.328Z,97799.20
2018-05-01T20:20:44.681Z,97792.94
2018-05-01T20:23:11.967Z,97796.60
2018-05-01T20:25:39.146Z,97796.38
2018-05-01T20:28:06.456Z,97800.87
2018-05-01T20:30:34.735Z,97795.44
2018-05-01T20:33:02.624Z,97800.33
2018-05-01T20:35:29.872Z,97810.52
2018-05-01T20:37:57.017Z,97809.68
2018-05-01T20:40:24.169Z,97809.73
2018-05-01T20:42:51.309Z,97814.88
2018-05-01T20:45:18.508Z,97814.42
2018-05-01T20:47:45.588Z,97812.12
2018-05-01T20:50:12.727Z,97812.12
2018-05-01T20:52:39.902Z,97817.80
2018-05-01T20:55:07.072Z,97808.86
2018-05-01T20:57:34.422Z,97811.69
2018-05-01T21:00:01.541Z,97809.27
2018-05-01T21:02:28.626Z,97814.47
2018-05-01T21:04:55.748Z,97811.01
2018-05-01T21:07:22.864Z,97814.31
2018-05-01T21:09:49.977Z,97810.36
2018-05-01T21:12:17.296Z,97816.17
2018-05-01T21:15:17.951Z,97823.45
2018-05-01T21:17:45.118Z,97825.95
2018-05-01T21:20:12.281Z,97814.20
2018-05-01T21:22:39.521Z,97815.56
2018-05-01T21:25:06.725Z,97813.51
2018-05-01T21:27:33.791Z,97811.34
2018-05-01T21:30:00.969Z,97815.47
2018-05-01T21:32:28.061Z,97816.53
2018-05-01T21:34:55.147Z,97818.85
2018-05-01T21:37:22.241Z,97823.20
2018-05-01T21:39:49.413Z,97823.73
2018-05-01T21:42:16.607Z,97831.86
2018-05-01T21:44:43.817Z,97830.50
2018-05-01T21:47:10.995Z,97833.81
2018-05-01T21:49:38.191Z,97830.42
2018-05-01T21:52:05.723Z,97832.16
2018-05-01T21:54:33.249Z,97834.25
2018-05-01T21:57:00.303Z,97834.70
2018-05-01T21:59:27.936Z,97825.87
2018-05-01T22:01:55.523Z,97817.20
2018-05-01T22:04:22.643Z,97816.23
2018-05-01T22:06:50.407Z,97821.40
2018-05-01T22:09:17.515Z,97814.47
2018-05-01T22:11:44.666Z,97819.55
2018-05-01T22:14:11.787Z,97819.84
2018-05-01T22:16:39.130Z,97826.30
2018-05-01T22:19:06.897Z,97816.39
2018-05-01T22:21:34.527Z,97816.66
2018-05-01T22:24:02.193Z,97816.67
2018-05-01T22:26:29.862Z,97804.66
2018-05-01T22:28:56.946Z,97813.23
2018-05-01T22:31:24.666Z,97808.58
2018-05-01T22:33:51.982Z,97808.50
2018-05-01T22:36:19.317Z,97803.55
2018-05-01T22:38:46.498Z,97811.14
2018-05-01T22:41:13.637Z,97812.29
2018-05-01T22:43:40.826Z,97803.84
2018-05-01T22:46:08.487Z,97804.77
2018-05-01T22:48:36.184Z,97801.78
2018-05-01T22:51:03.811Z,97802.42
2018-05-01T22:53:31.502Z,97790.90
2018-05-01T22:55:58.612Z,97791.83
2018-05-01T22:58:25.838Z,97799.47
2018-05-01T23:00:52.903Z,97787.68
2018-05-01T23:03:20.623Z,97790.19
2018-05-01T23:05:47.919Z,97794.23
2018-05-01T23:08:15.152Z,97791.27
2018-05-01T23:10:42.224Z,97792.08
2018-05-01T23:13:09.422Z,97793.66
2018-05-01T23:15:36.487Z,97786.87
2018-05-01T23:18:03.747Z,97791.02
2018-05-01T23:20:30.816Z,97792.76
2018-05-01T23:22:57.983Z,97796.61
2018-05-01T23:25:25.146Z,97795.00
2018-05-01T23:27:52.336Z,97799.47
2018-05-01T23:30:19.539Z,97797.24
2018-05-01T23:32:46.893Z,97803.38
2018-05-01T23:35:14.461Z,97790.95
2018-05-01T23:37:41.549Z,97801.67
2018-05-01T23:40:08.701Z,97809.06
2018-05-01T23:42:35.978Z,97807.06
2018-05-01T23:45:03.120Z,97808.25
2018-05-01T23:47:30.297Z,97809.19
2018-05-01T23:49:57.402Z,97810.08
2018-05-01T23:52:24.521Z,97802.55
2018-05-01T23:54:51.774Z,97805.41
2018-05-01T23:57:19.366Z,97799.15
2018-05-01T23:59:47.022Z,97801.67
